sensor_id;sensor_type;location;lat;lon;timestamp;temperature;humidity
28520;DHT22;15732;48.534;20.382;2024-03-29T00:02:24;11.60;99.90
28520;DHT22;15732;48.534;20.382;2024-03-29T00:04:52;11.60;99.90
28520;DHT22;15732;48.534;20.382;2024-03-29T00:07:19;11.70;99.90
28520;DHT22;15732;48.534;20.382;2024-03-29T00:09:46;11.70;99.90
28520;DHT22;15732;48.534;20.382;2024-03-29T00:12:18;11.70;99.90
28520;DHT22;15732;48.534;20.382;2024-03-29T00:14:49;11.70;99.90
28520;DHT22;15732;48.534;20.382;2024-03-29T00:17:18;11.70;99.90
28520;DHT22;15732;48.534;20.382;2024-03-29T00:19:45;11.70;99.90
28520;DHT22;15732;48.534;20.382;2024-03-29T00:22:13;11.70;99.90
28520;DHT22;15732;48.534;20.382;2024-03-29T00:24:45;11.70;99.90
28520;DHT22;15732;48.534;20.382;2024-03-29T00:27:12;11.70;99.90
28520;DHT22;15732;48.534;20.382;2024-03-29T00:29:43;11.70;99.90
28520;DHT22;15732;48.534;20.382;2024-03-29T00:32:13;11.70;99.90
28520;DHT22;15732;48.534;20.382;2024-03-29T00:34:41;11.70;99.90
28520;DHT22;15732;48.534;20.382;2024-03-29T00:37:09;11.70;99.90
28520;DHT22;15732;48.534;20.382;2024-03-29T00:39:37;11.60;99.90
28520;DHT22;15732;48.534;20.382;2024-03-29T00:42:05;11.60;99.90
28520;DHT22;15732;48.534;20.382;2024-03-29T00:44:35;11.60;99.90
28520;DHT22;15732;48.534;20.382;2024-03-29T00:47:07;11.60;99.90
28520;DHT22;15732;48.534;20.382;2024-03-29T00:49:36;11.50;99.90
28520;DHT22;15732;48.534;20.382;2024-03-29T00:52:03;11.50;99.90
28520;DHT22;15732;48.534;20.382;2024-03-29T00:54:31;11.40;99.90
28520;DHT22;15732;48.534;20.382;2024-03-29T00:56:59;11.40;99.90
28520;DHT22;15732;48.534;20.382;2024-03-29T00:59:26;11.40;99.90
28520;DHT22;15732;48.534;20.382;2024-03-29T01:01:54;11.30;99.90
28520;DHT22;15732;48.534;20.382;2024-03-29T01:04:21;11.30;99.90
28520;DHT22;15732;48.534;20.382;2024-03-29T01:06:49;11.30;99.90
28520;DHT22;15732;48.534;20.382;2024-03-29T01:09:17;11.20;99.90
28520;DHT22;15732;48.534;20.382;2024-03-29T01:11:44;11.20;99.90
28520;DHT22;15732;48.534;20.382;2024-03-29T01:14:12;11.20;99.90
28520;DHT22;15732;48.534;20.382;2024-03-29T01:16:40;11.10;99.90
28520;DHT22;15732;48.534;20.382;2024-03-29T01:19:07;11.10;99.90
28520;DHT22;15732;48.534;20.382;2024-03-29T01:21:37;11.10;99.90
28520;DHT22;15732;48.534;20.382;2024-03-29T01:24:04;11.00;99.90
28520;DHT22;15732;48.534;20.382;2024-03-29T01:26:31;11.00;99.90
28520;DHT22;15732;48.534;20.382;2024-03-29T01:28:59;11.00;99.90
28520;DHT22;15732;48.534;20.382;2024-03-29T01:31:26;11.00;99.90
28520;DHT22;15732;48.534;20.382;2024-03-29T01:33:54;11.00;99.90
28520;DHT22;15732;48.534;20.382;2024-03-29T01:36:24;10.90;99.90
28520;DHT22;15732;48.534;20.382;2024-03-29T01:38:51;10.80;99.90
28520;DHT22;15732;48.534;20.382;2024-03-29T01:41:22;10.80;99.90
28520;DHT22;15732;48.534;20.382;2024-03-29T01:43:50;10.80;99.90
28520;DHT22;15732;48.534;20.382;2024-03-29T01:46:20;10.80;99.90
28520;DHT22;15732;48.534;20.382;2024-03-29T01:48:47;10.80;99.90
28520;DHT22;15732;48.534;20.382;2024-03-29T01:51:15;10.70;99.90
28520;DHT22;15732;48.534;20.382;2024-03-29T01:53:42;10.70;99.90
28520;DHT22;15732;48.534;20.382;2024-03-29T01:56:15;10.70;99.90
28520;DHT22;15732;48.534;20.382;2024-03-29T01:58:44;10.60;99.90
28520;DHT22;15732;48.534;20.382;2024-03-29T02:01:16;10.50;99.90
28520;DHT22;15732;48.534;20.382;2024-03-29T02:03:43;10.40;99.90
28520;DHT22;15732;48.534;20.382;2024-03-29T02:06:11;10.40;99.90
28520;DHT22;15732;48.534;20.382;2024-03-29T02:08:39;10.40;99.90
28520;DHT22;15732;48.534;20.382;2024-03-29T02:11:10;10.40;99.90
28520;DHT22;15732;48.534;20.382;2024-03-29T02:13:41;10.30;99.90
28520;DHT22;15732;48.534;20.382;2024-03-29T02:16:09;10.30;99.90
28520;DHT22;15732;48.534;20.382;2024-03-29T02:18:36;10.30;99.90
28520;DHT22;15732;48.534;20.382;2024-03-29T02:21:04;10.20;99.90
28520;DHT22;15732;48.534;20.382;2024-03-29T02:23:32;10.10;99.90
28520;DHT22;15732;48.534;20.382;2024-03-29T02:26:06;10.00;99.90
28520;DHT22;15732;48.534;20.382;2024-03-29T02:28:34;10.00;99.90
28520;DHT22;15732;48.534;20.382;2024-03-29T02:31:01;9.90;99.90
28520;DHT22;15732;48.534;20.382;2024-03-29T02:33:28;9.80;99.90
28520;DHT22;15732;48.534;20.382;2024-03-29T02:35:55;9.70;99.90
28520;DHT22;15732;48.534;20.382;2024-03-29T02:38:23;9.60;99.90
28520;DHT22;15732;48.534;20.382;2024-03-29T02:40:51;9.50;99.90
28520;DHT22;15732;48.534;20.382;2024-03-29T02:43:18;9.50;99.90
28520;DHT22;15732;48.534;20.382;2024-03-29T02:45:46;9.50;99.90
28520;DHT22;15732;48.534;20.382;2024-03-29T02:48:14;9.40;99.90
28520;DHT22;15732;48.534;20.382;2024-03-29T02:50:41;9.40;99.90
28520;DHT22;15732;48.534;20.382;2024-03-29T02:53:12;9.20;99.90
28520;DHT22;15732;48.534;20.382;2024-03-29T02:55:41;9.20;99.90
28520;DHT22;15732;48.534;20.382;2024-03-29T02:58:12;9.00;99.90
28520;DHT22;15732;48.534;20.382;2024-03-29T03:00:40;9.00;99.90
28520;DHT22;15732;48.534;20.382;2024-03-29T03:03:08;9.00;99.90
28520;DHT22;15732;48.534;20.382;2024-03-29T03:05:35;9.00;99.90
28520;DHT22;15732;48.534;20.382;2024-03-29T03:08:03;9.00;99.90
28520;DHT22;15732;48.534;20.382;2024-03-29T03:10:48;9.00;99.90
28520;DHT22;15732;48.534;20.382;2024-03-29T03:13:28;9.10;99.90
28520;DHT22;15732;48.534;20.382;2024-03-29T03:15:56;9.10;99.90
28520;DHT22;15732;48.534;20.382;2024-03-29T03:18:23;9.00;99.90
28520;DHT22;15732;48.534;20.382;2024-03-29T03:20:54;9.00;99.90
28520;DHT22;15732;48.534;20.382;2024-03-29T03:23:26;9.00;99.90
28520;DHT22;15732;48.534;20.382;2024-03-29T03:25:58;9.00;99.90
28520;DHT22;15732;48.534;20.382;2024-03-29T03:28:26;9.00;99.90
28520;DHT22;15732;48.534;20.382;2024-03-29T03:30:53;8.90;99.90
28520;DHT22;15732;48.534;20.382;2024-03-29T03:33:21;8.80;99.90
28520;DHT22;15732;48.534;20.382;2024-03-29T03:35:48;8.80;99.90
28520;DHT22;15732;48.534;20.382;2024-03-29T03:38:17;8.70;99.90
28520;DHT22;15732;48.534;20.382;2024-03-29T03:40:44;8.70;99.90
28520;DHT22;15732;48.534;20.382;2024-03-29T03:43:11;8.70;99.90
28520;DHT22;15732;48.534;20.382;2024-03-29T03:45:39;8.60;99.90
28520;DHT22;15732;48.534;20.382;2024-03-29T03:48:08;8.60;99.90
28520;DHT22;15732;48.534;20.382;2024-03-29T03:50:38;8.50;99.90
28520;DHT22;15732;48.534;20.382;2024-03-29T03:53:04;8.50;99.90
28520;DHT22;15732;48.534;20.382;2024-03-29T03:55:38;8.50;99.90
28520;DHT22;15732;48.534;20.382;2024-03-29T03:58:22;8.50;99.90
28520;DHT22;15732;48.534;20.382;2024-03-29T04:00:53;8.60;99.90
28520;DHT22;15732;48.534;20.382;2024-03-29T04:03:20;8.60;99.90
28520;DHT22;15732;48.534;20.382;2024-03-29T04:05:48;8.70;99.90
28520;DHT22;15732;48.534;20.382;2024-03-29T04:08:15;8.80;99.90
28520;DHT22;15732;48.534;20.382;2024-03-29T04:10:48;8.80;99.90
28520;DHT22;15732;48.534;20.382;2024-03-29T04:13:17;8.70;99.90
28520;DHT22;15732;48.534;20.382;2024-03-29T04:15:44;8.50;99.90
28520;DHT22;15732;48.534;20.382;2024-03-29T04:18:11;8.30;99.90
28520;DHT22;15732;48.534;20.382;2024-03-29T04:20:39;8.00;99.90
28520;DHT22;15732;48.534;20.382;2024-03-29T04:23:07;7.90;99.90
28520;DHT22;15732;48.534;20.382;2024-03-29T04:25:34;7.80;99.90
28520;DHT22;15732;48.534;20.382;2024-03-29T04:28:02;7.90;99.90
28520;DHT22;15732;48.534;20.382;2024-03-29T04:30:30;7.90;99.90
28520;DHT22;15732;48.534;20.382;2024-03-29T04:32:57;8.00;99.90
28520;DHT22;15732;48.534;20.382;2024-03-29T04:35:25;8.00;99.90
28520;DHT22;15732;48.534;20.382;2024-03-29T04:37:52;8.00;99.90
28520;DHT22;15732;48.534;20.382;2024-03-29T04:40:20;8.00;99.90
28520;DHT22;15732;48.534;20.382;2024-03-29T04:42:47;8.00;99.90
28520;DHT22;15732;48.534;20.382;2024-03-29T04:45:15;8.00;99.90
28520;DHT22;15732;48.534;20.382;2024-03-29T04:47:46;7.90;99.90
28520;DHT22;15732;48.534;20.382;2024-03-29T04:50:14;7.90;99.90
28520;DHT22;15732;48.534;20.382;2024-03-29T04:52:42;7.80;99.90
28520;DHT22;15732;48.534;20.382;2024-03-29T04:55:09;7.90;99.90
28520;DHT22;15732;48.534;20.382;2024-03-29T04:57:41;7.90;99.90
28520;DHT22;15732;48.534;20.382;2024-03-29T05:00:10;7.90;99.90
28520;DHT22;15732;48.534;20.382;2024-03-29T05:02:39;8.00;99.90
28520;DHT22;15732;48.534;20.382;2024-03-29T05:05:06;8.00;99.90
28520;DHT22;15732;48.534;20.382;2024-03-29T05:07:34;8.10;99.90
28520;DHT22;15732;48.534;20.382;2024-03-29T05:10:02;8.20;99.90
28520;DHT22;15732;48.534;20.382;2024-03-29T05:12:55;8.10;99.90
28520;DHT22;15732;48.534;20.382;2024-03-29T05:15:22;8.10;99.90
28520;DHT22;15732;48.534;20.382;2024-03-29T05:17:50;8.00;99.90
28520;DHT22;15732;48.534;20.382;2024-03-29T05:20:22;8.10;99.90
28520;DHT22;15732;48.534;20.382;2024-03-29T05:22:50;8.20;99.90
28520;DHT22;15732;48.534;20.382;2024-03-29T05:25:17;8.20;99.90
28520;DHT22;15732;48.534;20.382;2024-03-29T05:27:45;8.30;99.90
28520;DHT22;15732;48.534;20.382;2024-03-29T05:30:13;8.40;99.90
28520;DHT22;15732;48.534;20.382;2024-03-29T05:32:41;8.40;99.90
28520;DHT22;15732;48.534;20.382;2024-03-29T05:35:08;8.50;99.90
28520;DHT22;15732;48.534;20.382;2024-03-29T05:37:37;8.50;99.90
28520;DHT22;15732;48.534;20.382;2024-03-29T05:40:06;8.50;99.90
28520;DHT22;15732;48.534;20.382;2024-03-29T05:42:36;8.50;99.90
28520;DHT22;15732;48.534;20.382;2024-03-29T05:45:20;8.50;99.90
28520;DHT22;15732;48.534;20.382;2024-03-29T05:47:49;8.60;99.90
28520;DHT22;15732;48.534;20.382;2024-03-29T05:50:17;8.60;99.90
28520;DHT22;15732;48.534;20.382;2024-03-29T05:52:44;8.60;99.90
28520;DHT22;15732;48.534;20.382;2024-03-29T05:55:12;8.70;99.90
28520;DHT22;15732;48.534;20.382;2024-03-29T05:57:40;8.70;99.90
28520;DHT22;15732;48.534;20.382;2024-03-29T06:00:12;8.70;99.90
28520;DHT22;15732;48.534;20.382;2024-03-29T06:02:43;8.80;99.90
28520;DHT22;15732;48.534;20.382;2024-03-29T06:05:12;8.90;99.90
28520;DHT22;15732;48.534;20.382;2024-03-29T06:07:43;9.00;99.90
28520;DHT22;15732;48.534;20.382;2024-03-29T06:10:11;9.00;99.90
28520;DHT22;15732;48.534;20.382;2024-03-29T06:12:41;9.10;99.90
28520;DHT22;15732;48.534;20.382;2024-03-29T06:15:09;9.20;99.90
28520;DHT22;15732;48.534;20.382;2024-03-29T06:17:55;9.30;99.90
28520;DHT22;15732;48.534;20.382;2024-03-29T06:20:23;9.30;99.90
28520;DHT22;15732;48.534;20.382;2024-03-29T06:22:50;9.40;99.90
28520;DHT22;15732;48.534;20.382;2024-03-29T06:25:17;9.50;99.90
28520;DHT22;15732;48.534;20.382;2024-03-29T06:27:44;9.60;99.90
28520;DHT22;15732;48.534;20.382;2024-03-29T06:30:14;9.70;99.90
28520;DHT22;15732;48.534;20.382;2024-03-29T06:33:01;9.70;99.90
28520;DHT22;15732;48.534;20.382;2024-03-29T06:35:30;9.90;99.90
28520;DHT22;15732;48.534;20.382;2024-03-29T06:37:58;9.90;99.90
28520;DHT22;15732;48.534;20.382;2024-03-29T06:40:25;10.00;99.90
28520;DHT22;15732;48.534;20.382;2024-03-29T06:42:53;10.10;99.90
28520;DHT22;15732;48.534;20.382;2024-03-29T06:45:23;10.20;99.90
28520;DHT22;15732;48.534;20.382;2024-03-29T06:47:50;10.30;99.90
28520;DHT22;15732;48.534;20.382;2024-03-29T06:50:18;10.40;99.90
28520;DHT22;15732;48.534;20.382;2024-03-29T06:52:46;10.60;99.90
28520;DHT22;15732;48.534;20.382;2024-03-29T06:55:14;10.60;99.90
28520;DHT22;15732;48.534;20.382;2024-03-29T06:57:41;10.70;99.90
28520;DHT22;15732;48.534;20.382;2024-03-29T07:00:14;10.80;99.90
28520;DHT22;15732;48.534;20.382;2024-03-29T07:02:41;10.90;99.90
28520;DHT22;15732;48.534;20.382;2024-03-29T07:05:13;11.00;99.90
28520;DHT22;15732;48.534;20.382;2024-03-29T07:07:41;11.10;99.90
28520;DHT22;15732;48.534;20.382;2024-03-29T07:10:09;11.20;99.90
28520;DHT22;15732;48.534;20.382;2024-03-29T07:12:36;11.40;99.90
28520;DHT22;15732;48.534;20.382;2024-03-29T07:15:04;11.50;99.90
28520;DHT22;15732;48.534;20.382;2024-03-29T07:17:33;11.60;99.90
28520;DHT22;15732;48.534;20.382;2024-03-29T07:20:01;11.80;99.90
28520;DHT22;15732;48.534;20.382;2024-03-29T07:22:30;12.00;99.90
28520;DHT22;15732;48.534;20.382;2024-03-29T07:25:01;12.10;99.90
28520;DHT22;15732;48.534;20.382;2024-03-29T07:27:28;12.20;99.90
28520;DHT22;15732;48.534;20.382;2024-03-29T07:30:01;12.40;99.90
28520;DHT22;15732;48.534;20.382;2024-03-29T07:32:30;12.50;99.90
28520;DHT22;15732;48.534;20.382;2024-03-29T07:34:57;12.60;99.90
28520;DHT22;15732;48.534;20.382;2024-03-29T07:37:29;12.70;99.90
28520;DHT22;15732;48.534;20.382;2024-03-29T07:39:56;12.80;99.90
28520;DHT22;15732;48.534;20.382;2024-03-29T07:42:23;12.90;99.90
28520;DHT22;15732;48.534;20.382;2024-03-29T07:44:55;13.00;99.90
28520;DHT22;15732;48.534;20.382;2024-03-29T07:47:23;13.10;99.90
28520;DHT22;15732;48.534;20.382;2024-03-29T07:49:55;13.20;99.90
28520;DHT22;15732;48.534;20.382;2024-03-29T07:52:22;13.30;99.90
28520;DHT22;15732;48.534;20.382;2024-03-29T07:54:50;13.40;99.90
28520;DHT22;15732;48.534;20.382;2024-03-29T07:57:18;13.50;99.90
28520;DHT22;15732;48.534;20.382;2024-03-29T07:59:46;13.50;99.90
28520;DHT22;15732;48.534;20.382;2024-03-29T08:02:13;13.60;99.90
28520;DHT22;15732;48.534;20.382;2024-03-29T08:04:41;13.70;99.90
28520;DHT22;15732;48.534;20.382;2024-03-29T08:07:10;13.80;99.90
28520;DHT22;15732;48.534;20.382;2024-03-29T08:09:38;13.80;99.90
28520;DHT22;15732;48.534;20.382;2024-03-29T08:12:07;13.80;99.90
28520;DHT22;15732;48.534;20.382;2024-03-29T08:14:35;13.90;99.90
28520;DHT22;15732;48.534;20.382;2024-03-29T08:17:02;13.90;99.90
28520;DHT22;15732;48.534;20.382;2024-03-29T08:19:33;13.90;99.90
28520;DHT22;15732;48.534;20.382;2024-03-29T08:22:01;13.90;99.90
28520;DHT22;15732;48.534;20.382;2024-03-29T08:24:28;14.00;99.90
28520;DHT22;15732;48.534;20.382;2024-03-29T08:26:56;14.00;99.90
28520;DHT22;15732;48.534;20.382;2024-03-29T08:29:26;14.10;99.90
28520;DHT22;15732;48.534;20.382;2024-03-29T08:31:53;14.20;99.90
28520;DHT22;15732;48.534;20.382;2024-03-29T08:34:24;14.30;99.90
28520;DHT22;15732;48.534;20.382;2024-03-29T08:36:57;14.30;99.90
28520;DHT22;15732;48.534;20.382;2024-03-29T08:39:25;14.40;99.90
28520;DHT22;15732;48.534;20.382;2024-03-29T08:41:56;14.50;99.90
28520;DHT22;15732;48.534;20.382;2024-03-29T08:44:23;14.50;99.90
28520;DHT22;15732;48.534;20.382;2024-03-29T08:46:55;14.60;99.90
28520;DHT22;15732;48.534;20.382;2024-03-29T08:49:24;14.60;99.90
28520;DHT22;15732;48.534;20.382;2024-03-29T08:51:51;14.70;99.90
28520;DHT22;15732;48.534;20.382;2024-03-29T08:54:19;14.80;99.90
28520;DHT22;15732;48.534;20.382;2024-03-29T08:56:47;14.80;99.90
28520;DHT22;15732;48.534;20.382;2024-03-29T08:59:15;14.90;99.90
28520;DHT22;15732;48.534;20.382;2024-03-29T09:01:48;15.00;99.90
28520;DHT22;15732;48.534;20.382;2024-03-29T09:04:16;15.00;99.90
28520;DHT22;15732;48.534;20.382;2024-03-29T09:06:43;15.00;99.90
28520;DHT22;15732;48.534;20.382;2024-03-29T09:09:11;15.10;99.90
28520;DHT22;15732;48.534;20.382;2024-03-29T09:11:39;15.10;99.90
28520;DHT22;15732;48.534;20.382;2024-03-29T09:14:06;15.20;99.90
28520;DHT22;15732;48.534;20.382;2024-03-29T09:16:36;15.20;99.90
28520;DHT22;15732;48.534;20.382;2024-03-29T09:19:03;15.20;99.90
28520;DHT22;15732;48.534;20.382;2024-03-29T09:21:31;15.30;99.90
28520;DHT22;15732;48.534;20.382;2024-03-29T09:24:03;15.30;99.90
28520;DHT22;15732;48.534;20.382;2024-03-29T09:26:31;15.30;99.90
28520;DHT22;15732;48.534;20.382;2024-03-29T09:29:02;15.40;99.90
28520;DHT22;15732;48.534;20.382;2024-03-29T09:31:29;15.30;99.90
28520;DHT22;15732;48.534;20.382;2024-03-29T09:33:56;15.40;99.90
28520;DHT22;15732;48.534;20.382;2024-03-29T09:36:28;15.40;99.90
28520;DHT22;15732;48.534;20.382;2024-03-29T09:38:55;15.40;99.90
28520;DHT22;15732;48.534;20.382;2024-03-29T09:41:25;15.50;99.90
28520;DHT22;15732;48.534;20.382;2024-03-29T09:43:53;15.50;99.90
28520;DHT22;15732;48.534;20.382;2024-03-29T09:46:25;15.50;99.90
28520;DHT22;15732;48.534;20.382;2024-03-29T09:48:55;15.60;99.90
28520;DHT22;15732;48.534;20.382;2024-03-29T09:51:23;15.60;99.90
28520;DHT22;15732;48.534;20.382;2024-03-29T09:53:51;15.50;99.90
28520;DHT22;15732;48.534;20.382;2024-03-29T09:56:19;15.50;99.90
28520;DHT22;15732;48.534;20.382;2024-03-29T09:58:47;15.60;99.90
28520;DHT22;15732;48.534;20.382;2024-03-29T10:01:15;15.60;99.90
28520;DHT22;15732;48.534;20.382;2024-03-29T10:03:48;15.60;99.90
28520;DHT22;15732;48.534;20.382;2024-03-29T10:06:18;15.50;99.90
28520;DHT22;15732;48.534;20.382;2024-03-29T10:08:46;15.50;99.90
28520;DHT22;15732;48.534;20.382;2024-03-29T10:11:15;15.60;99.90
28520;DHT22;15732;48.534;20.382;2024-03-29T10:13:46;15.60;99.90
28520;DHT22;15732;48.534;20.382;2024-03-29T10:16:14;15.60;99.90
28520;DHT22;15732;48.534;20.382;2024-03-29T10:18:47;15.60;99.90
28520;DHT22;15732;48.534;20.382;2024-03-29T10:21:15;15.60;99.90
28520;DHT22;15732;48.534;20.382;2024-03-29T10:23:43;15.60;99.90
28520;DHT22;15732;48.534;20.382;2024-03-29T10:26:13;15.60;99.90
28520;DHT22;15732;48.534;20.382;2024-03-29T10:28:45;15.70;99.90
28520;DHT22;15732;48.534;20.382;2024-03-29T10:31:12;15.70;99.90
28520;DHT22;15732;48.534;20.382;2024-03-29T10:33:43;15.70;99.90
28520;DHT22;15732;48.534;20.382;2024-03-29T10:36:14;15.80;99.90
28520;DHT22;15732;48.534;20.382;2024-03-29T10:38:46;15.80;99.90
28520;DHT22;15732;48.534;20.382;2024-03-29T10:41:15;15.80;99.90
28520;DHT22;15732;48.534;20.382;2024-03-29T10:43:46;15.80;99.90
28520;DHT22;15732;48.534;20.382;2024-03-29T10:46:18;15.90;99.90
28520;DHT22;15732;48.534;20.382;2024-03-29T10:48:49;15.90;99.90
28520;DHT22;15732;48.534;20.382;2024-03-29T10:51:17;16.00;99.90
28520;DHT22;15732;48.534;20.382;2024-03-29T10:53:48;16.00;99.90
28520;DHT22;15732;48.534;20.382;2024-03-29T10:56:15;15.90;99.90
28520;DHT22;15732;48.534;20.382;2024-03-29T10:58:50;16.00;99.90
28520;DHT22;15732;48.534;20.382;2024-03-29T11:01:23;16.00;99.90
28520;DHT22;15732;48.534;20.382;2024-03-29T11:03:54;16.00;99.90
28520;DHT22;15732;48.534;20.382;2024-03-29T11:06:26;16.10;99.90
28520;DHT22;15732;48.534;20.382;2024-03-29T11:09:01;16.10;99.90
28520;DHT22;15732;48.534;20.382;2024-03-29T11:11:29;16.10;99.90
28520;DHT22;15732;48.534;20.382;2024-03-29T11:14:20;16.10;99.90
28520;DHT22;15732;48.534;20.382;2024-03-29T11:16:47;16.10;99.90
28520;DHT22;15732;48.534;20.382;2024-03-29T11:19:18;16.20;99.90
28520;DHT22;15732;48.534;20.382;2024-03-29T11:21:45;16.30;99.90
28520;DHT22;15732;48.534;20.382;2024-03-29T11:24:17;16.30;99.90
28520;DHT22;15732;48.534;20.382;2024-03-29T11:26:46;16.30;99.90
28520;DHT22;15732;48.534;20.382;2024-03-29T11:29:20;16.30;99.90
28520;DHT22;15732;48.534;20.382;2024-03-29T11:31:56;16.30;99.90
28520;DHT22;15732;48.534;20.382;2024-03-29T11:34:32;16.20;99.90
28520;DHT22;15732;48.534;20.382;2024-03-29T11:37:12;16.20;99.90
28520;DHT22;15732;48.534;20.382;2024-03-29T11:39:40;16.10;99.90
28520;DHT22;15732;48.534;20.382;2024-03-29T11:42:14;16.10;99.90
28520;DHT22;15732;48.534;20.382;2024-03-29T11:44:41;16.10;99.90
28520;DHT22;15732;48.534;20.382;2024-03-29T11:47:10;16.10;99.90
28520;DHT22;15732;48.534;20.382;2024-03-29T11:49:39;16.10;99.90
28520;DHT22;15732;48.534;20.382;2024-03-29T11:52:06;16.00;99.90
28520;DHT22;15732;48.534;20.382;2024-03-29T11:54:38;16.10;99.90
28520;DHT22;15732;48.534;20.382;2024-03-29T11:57:05;16.10;99.90
28520;DHT22;15732;48.534;20.382;2024-03-29T11:59:32;16.10;99.90
28520;DHT22;15732;48.534;20.382;2024-03-29T12:02:00;16.10;99.90
28520;DHT22;15732;48.534;20.382;2024-03-29T12:04:28;16.10;99.90
28520;DHT22;15732;48.534;20.382;2024-03-29T12:06:57;16.10;99.90
28520;DHT22;15732;48.534;20.382;2024-03-29T12:09:25;16.20;99.90
28520;DHT22;15732;48.534;20.382;2024-03-29T12:11:52;16.10;99.90
28520;DHT22;15732;48.534;20.382;2024-03-29T12:14:20;16.20;99.90
28520;DHT22;15732;48.534;20.382;2024-03-29T12:16:50;16.20;99.90
28520;DHT22;15732;48.534;20.382;2024-03-29T12:19:24;16.20;99.90
28520;DHT22;15732;48.534;20.382;2024-03-29T12:21:52;16.20;99.90
28520;DHT22;15732;48.534;20.382;2024-03-29T12:24:19;16.20;99.90
28520;DHT22;15732;48.534;20.382;2024-03-29T12:26:48;16.20;99.90
28520;DHT22;15732;48.534;20.382;2024-03-29T12:29:16;16.20;99.90
28520;DHT22;15732;48.534;20.382;2024-03-29T12:32:00;16.20;99.90
28520;DHT22;15732;48.534;20.382;2024-03-29T12:34:27;16.20;99.90
28520;DHT22;15732;48.534;20.382;2024-03-29T12:36:54;16.20;99.90
28520;DHT22;15732;48.534;20.382;2024-03-29T12:39:24;16.20;99.90
28520;DHT22;15732;48.534;20.382;2024-03-29T12:41:53;16.20;99.90
28520;DHT22;15732;48.534;20.382;2024-03-29T12:44:23;16.20;99.90
28520;DHT22;15732;48.534;20.382;2024-03-29T12:46:55;16.20;99.90
28520;DHT22;15732;48.534;20.382;2024-03-29T12:49:30;16.20;99.90
28520;DHT22;15732;48.534;20.382;2024-03-29T12:51:57;16.20;99.90
28520;DHT22;15732;48.534;20.382;2024-03-29T12:54:24;16.20;99.90
28520;DHT22;15732;48.534;20.382;2024-03-29T12:56:53;16.20;99.90
28520;DHT22;15732;48.534;20.382;2024-03-29T12:59:21;16.20;99.90
28520;DHT22;15732;48.534;20.382;2024-03-29T13:01:48;16.20;99.90
28520;DHT22;15732;48.534;20.382;2024-03-29T13:04:16;16.20;99.90
28520;DHT22;15732;48.534;20.382;2024-03-29T13:06:44;16.20;99.90
28520;DHT22;15732;48.534;20.382;2024-03-29T13:09:11;16.20;99.90
28520;DHT22;15732;48.534;20.382;2024-03-29T13:11:40;16.20;99.90
28520;DHT22;15732;48.534;20.382;2024-03-29T13:14:07;16.20;99.90
28520;DHT22;15732;48.534;20.382;2024-03-29T13:16:35;16.20;99.90
28520;DHT22;15732;48.534;20.382;2024-03-29T13:19:08;16.20;99.90
28520;DHT22;15732;48.534;20.382;2024-03-29T13:21:36;16.30;99.90
28520;DHT22;15732;48.534;20.382;2024-03-29T13:24:08;16.30;99.90
28520;DHT22;15732;48.534;20.382;2024-03-29T13:26:35;16.30;99.90
28520;DHT22;15732;48.534;20.382;2024-03-29T13:29:06;16.30;99.90
28520;DHT22;15732;48.534;20.382;2024-03-29T13:31:34;16.30;99.90
28520;DHT22;15732;48.534;20.382;2024-03-29T13:34:05;16.30;99.90
28520;DHT22;15732;48.534;20.382;2024-03-29T13:36:46;16.40;99.90
28520;DHT22;15732;48.534;20.382;2024-03-29T13:39:13;16.40;99.90
28520;DHT22;15732;48.534;20.382;2024-03-29T13:41:41;16.40;99.90
28520;DHT22;15732;48.534;20.382;2024-03-29T13:44:09;16.40;99.90
28520;DHT22;15732;48.534;20.382;2024-03-29T13:46:37;16.40;99.90
28520;DHT22;15732;48.534;20.382;2024-03-29T13:49:04;16.40;99.90
28520;DHT22;15732;48.534;20.382;2024-03-29T13:51:32;16.40;99.90
28520;DHT22;15732;48.534;20.382;2024-03-29T13:53:59;16.40;99.90
28520;DHT22;15732;48.534;20.382;2024-03-29T13:56:27;16.40;99.90
28520;DHT22;15732;48.534;20.382;2024-03-29T13:58:55;16.40;99.90
28520;DHT22;15732;48.534;20.382;2024-03-29T14:01:22;16.40;99.90
28520;DHT22;15732;48.534;20.382;2024-03-29T14:03:50;16.40;99.90
28520;DHT22;15732;48.534;20.382;2024-03-29T14:06:20;16.30;99.90
28520;DHT22;15732;48.534;20.382;2024-03-29T14:08:47;16.30;99.90
28520;DHT22;15732;48.534;20.382;2024-03-29T14:11:15;16.30;99.90
28520;DHT22;15732;48.534;20.382;2024-03-29T14:13:47;16.30;99.90
28520;DHT22;15732;48.534;20.382;2024-03-29T14:16:17;16.30;99.90
28520;DHT22;15732;48.534;20.382;2024-03-29T14:18:49;16.20;99.90
28520;DHT22;15732;48.534;20.382;2024-03-29T14:21:16;16.20;99.90
28520;DHT22;15732;48.534;20.382;2024-03-29T14:23:44;16.20;99.90
28520;DHT22;15732;48.534;20.382;2024-03-29T14:26:12;16.20;99.90
28520;DHT22;15732;48.534;20.382;2024-03-29T14:28:39;16.20;99.90
28520;DHT22;15732;48.534;20.382;2024-03-29T14:31:07;16.20;99.90
28520;DHT22;15732;48.534;20.382;2024-03-29T14:33:39;16.20;99.90
28520;DHT22;15732;48.534;20.382;2024-03-29T14:36:07;16.10;99.90
28520;DHT22;15732;48.534;20.382;2024-03-29T14:38:34;16.20;99.90
28520;DHT22;15732;48.534;20.382;2024-03-29T14:41:05;16.20;99.90
28520;DHT22;15732;48.534;20.382;2024-03-29T14:43:33;16.20;99.90
28520;DHT22;15732;48.534;20.382;2024-03-29T14:46:01;16.20;99.90
28520;DHT22;15732;48.534;20.382;2024-03-29T14:48:29;16.20;99.90
28520;DHT22;15732;48.534;20.382;2024-03-29T14:50:56;16.20;99.90
28520;DHT22;15732;48.534;20.382;2024-03-29T14:53:25;16.20;99.90
28520;DHT22;15732;48.534;20.382;2024-03-29T14:55:57;16.20;99.90
28520;DHT22;15732;48.534;20.382;2024-03-29T14:58:26;16.20;99.90
28520;DHT22;15732;48.534;20.382;2024-03-29T15:00:53;16.20;99.90
28520;DHT22;15732;48.534;20.382;2024-03-29T15:03:21;16.20;99.90
28520;DHT22;15732;48.534;20.382;2024-03-29T15:05:49;16.20;99.90
28520;DHT22;15732;48.534;20.382;2024-03-29T15:08:17;16.20;99.90
28520;DHT22;15732;48.534;20.382;2024-03-29T15:10:44;16.20;99.90
28520;DHT22;15732;48.534;20.382;2024-03-29T15:13:16;16.10;99.90
28520;DHT22;15732;48.534;20.382;2024-03-29T15:15:56;16.10;99.90
28520;DHT22;15732;48.534;20.382;2024-03-29T15:18:23;16.10;99.90
28520;DHT22;15732;48.534;20.382;2024-03-29T15:21:00;16.10;99.90
28520;DHT22;15732;48.534;20.382;2024-03-29T15:23:28;16.00;99.90
28520;DHT22;15732;48.534;20.382;2024-03-29T15:25:59;16.00;99.90
28520;DHT22;15732;48.534;20.382;2024-03-29T15:28:27;16.00;99.90
28520;DHT22;15732;48.534;20.382;2024-03-29T15:31:14;16.00;99.90
28520;DHT22;15732;48.534;20.382;2024-03-29T15:33:47;16.00;99.90